KUCY/UCY METAR and TAF weather

Enter ICAO airport designator
Station Type Date Time Source
KUCY METAR 2021/09/27 06:35 UTC NOAA

KUCY 270635Z AUTO 16003KT 10SM FEW030 FEW036 15/13 A3004 RMK A01


Station Type Date Time Source
KUCY Decoded METAR 2021/09/27 06:35 UTC NOAA

Station name not available
Sep 27, 2021 - 02:35 AM EDT / 2021.09.27 0635 UTC
Wind: from the SSE (160 degrees) at 3 MPH (3 KT):0
Visibility: 10 mile(s):0
Sky conditions: mostly clear
Temperature: 59 F (15 C)
Dew Point: 55 F (13 C)
Relative Humidity: 87%
Pressure (altimeter): 30.04 in. Hg (1017 hPa)
ob: KUCY 270635Z AUTO 16003KT 10SM FEW030 FEW036 15/13 A3004 RMK A01
cycle: 6

Station Type Date Time Source
KUCY TAF UTC NOAA

Error!

Example: see airport list